Terminal Aerodrome Forecast
Issued by NWS

Home | Current Version | Previous Version | Graphics & Text | Print | Product List | Glossary On
Versions: 1 2 3 4 5 6 7 8 9 10 11 12 13 14 15 16 17
000
FTUS45 KGGW 172302 AAA
TAFOLF
TAF AMD
KOLF 172302Z 1723/1818 06018G30KT P6SM BKN120
     FM180000 06018KT P6SM -SHRA OVC050
     FM180600 04015KT 6SM -RA OVC021=

USA.gov is the U.S. government's official web portal to all federal, state and local government web resources and services.